Terminal Aerodrome Forecast
Issued by NWS El Paso, TX

Home | Current Version | Previous Version | Text Only | Print | Product List | Glossary On
Versions: 1 2 3 4 5 6 7 8 9 10 11 12
810
FTUS44 KEPZ 200535
TAFELP
TAF
KELP 200535Z 2006/2106 28009KT P6SM FEW250
     FM202000 26011KT P6SM FEW090 FEW250=

USA.gov is the U.S. government's official web portal to all federal, state and local government web resources and services.